sensor_id;sensor_type;location;lat;lon;timestamp;P1;durP1;ratioP1;P2;durP2;ratioP2
36689;SDS011;22676;51.120;3.702;2023-08-20T00:01:25;2.28;;;1.10;;
36689;SDS011;22676;51.120;3.702;2023-08-20T00:03:52;2.67;;;1.25;;
36689;SDS011;22676;51.120;3.702;2023-08-20T00:06:18;3.00;;;1.30;;
36689;SDS011;22676;51.120;3.702;2023-08-20T00:08:45;1.30;;;1.00;;
36689;SDS011;22676;51.120;3.702;2023-08-20T00:11:11;1.20;;;0.82;;
36689;SDS011;22676;51.120;3.702;2023-08-20T00:13:37;1.38;;;0.90;;
36689;SDS011;22676;51.120;3.702;2023-08-20T00:16:03;1.30;;;1.00;;
36689;SDS011;22676;51.120;3.702;2023-08-20T00:18:29;2.42;;;1.10;;
36689;SDS011;22676;51.120;3.702;2023-08-20T00:20:55;1.80;;;0.90;;
36689;SDS011;22676;51.120;3.702;2023-08-20T00:23:21;1.48;;;0.95;;
36689;SDS011;22676;51.120;3.702;2023-08-20T00:25:47;1.10;;;1.00;;
36689;SDS011;22676;51.120;3.702;2023-08-20T00:28:13;2.42;;;0.90;;
36689;SDS011;22676;51.120;3.702;2023-08-20T00:30:39;2.63;;;1.00;;
36689;SDS011;22676;51.120;3.702;2023-08-20T00:33:05;0.88;;;0.80;;
36689;SDS011;22676;51.120;3.702;2023-08-20T00:35:31;2.30;;;1.17;;
36689;SDS011;22676;51.120;3.702;2023-08-20T00:37:57;1.05;;;0.95;;
36689;SDS011;22676;51.120;3.702;2023-08-20T00:40:23;1.42;;;0.80;;
36689;SDS011;22676;51.120;3.702;2023-08-20T00:42:48;2.97;;;1.00;;
36689;SDS011;22676;51.120;3.702;2023-08-20T00:45:14;1.33;;;0.82;;
36689;SDS011;22676;51.120;3.702;2023-08-20T00:47:41;1.70;;;0.90;;
36689;SDS011;22676;51.120;3.702;2023-08-20T00:50:08;1.08;;;0.98;;
36689;SDS011;22676;51.120;3.702;2023-08-20T00:52:34;0.80;;;0.75;;
36689;SDS011;22676;51.120;3.702;2023-08-20T00:55:07;1.52;;;1.00;;
36689;SDS011;22676;51.120;3.702;2023-08-20T00:57:35;1.77;;;1.00;;
36689;SDS011;22676;51.120;3.702;2023-08-20T01:00:04;4.20;;;1.05;;
36689;SDS011;22676;51.120;3.702;2023-08-20T01:02:34;2.05;;;1.30;;
36689;SDS011;22676;51.120;3.702;2023-08-20T01:05:01;3.38;;;1.25;;
36689;SDS011;22676;51.120;3.702;2023-08-20T01:08:22;2.15;;;0.95;;
36689;SDS011;22676;51.120;3.702;2023-08-20T01:13:27;1.83;;;0.93;;
36689;SDS011;22676;51.120;3.702;2023-08-20T01:15:53;1.98;;;1.20;;
36689;SDS011;22676;51.120;3.702;2023-08-20T01:18:18;1.13;;;0.90;;
36689;SDS011;22676;51.120;3.702;2023-08-20T01:21:06;1.63;;;1.05;;
36689;SDS011;22676;51.120;3.702;2023-08-20T01:23:40;1.35;;;0.82;;
36689;SDS011;22676;51.120;3.702;2023-08-20T01:28:57;1.20;;;0.80;;
36689;SDS011;22676;51.120;3.702;2023-08-20T01:31:22;1.80;;;1.00;;
36689;SDS011;22676;51.120;3.702;2023-08-20T01:33:50;2.28;;;0.98;;
36689;SDS011;22676;51.120;3.702;2023-08-20T01:36:16;1.70;;;1.02;;
36689;SDS011;22676;51.120;3.702;2023-08-20T01:38:42;2.17;;;0.80;;
36689;SDS011;22676;51.120;3.702;2023-08-20T01:41:08;1.95;;;0.90;;
36689;SDS011;22676;51.120;3.702;2023-08-20T01:43:33;2.08;;;1.05;;
36689;SDS011;22676;51.120;3.702;2023-08-20T01:45:59;1.98;;;1.10;;
36689;SDS011;22676;51.120;3.702;2023-08-20T01:48:25;1.38;;;0.93;;
36689;SDS011;22676;51.120;3.702;2023-08-20T01:50:51;0.88;;;0.82;;
36689;SDS011;22676;51.120;3.702;2023-08-20T01:53:16;1.13;;;0.90;;
36689;SDS011;22676;51.120;3.702;2023-08-20T01:55:42;1.30;;;0.90;;
36689;SDS011;22676;51.120;3.702;2023-08-20T01:58:07;1.80;;;1.17;;
36689;SDS011;22676;51.120;3.702;2023-08-20T02:00:33;4.22;;;1.50;;
36689;SDS011;22676;51.120;3.702;2023-08-20T02:02:59;3.15;;;1.08;;
36689;SDS011;22676;51.120;3.702;2023-08-20T02:05:25;3.53;;;1.10;;
36689;SDS011;22676;51.120;3.702;2023-08-20T02:07:50;1.60;;;1.20;;
36689;SDS011;22676;51.120;3.702;2023-08-20T02:10:16;1.90;;;0.80;;
36689;SDS011;22676;51.120;3.702;2023-08-20T02:12:42;2.05;;;1.10;;
36689;SDS011;22676;51.120;3.702;2023-08-20T02:15:07;1.27;;;0.90;;
36689;SDS011;22676;51.120;3.702;2023-08-20T02:17:34;2.50;;;1.17;;
36689;SDS011;22676;51.120;3.702;2023-08-20T02:20:01;4.45;;;0.90;;
36689;SDS011;22676;51.120;3.702;2023-08-20T02:22:28;0.90;;;0.82;;
36689;SDS011;22676;51.120;3.702;2023-08-20T02:24:54;1.45;;;0.85;;
36689;SDS011;22676;51.120;3.702;2023-08-20T02:27:20;1.20;;;0.95;;
36689;SDS011;22676;51.120;3.702;2023-08-20T02:29:46;1.77;;;0.95;;
36689;SDS011;22676;51.120;3.702;2023-08-20T02:32:12;3.58;;;1.00;;
36689;SDS011;22676;51.120;3.702;2023-08-20T02:34:38;1.80;;;0.98;;
36689;SDS011;22676;51.120;3.702;2023-08-20T02:37:04;3.42;;;0.88;;
36689;SDS011;22676;51.120;3.702;2023-08-20T02:39:29;1.27;;;0.98;;
36689;SDS011;22676;51.120;3.702;2023-08-20T02:41:56;1.33;;;0.98;;
36689;SDS011;22676;51.120;3.702;2023-08-20T02:44:22;2.38;;;1.20;;
36689;SDS011;22676;51.120;3.702;2023-08-20T02:46:47;1.30;;;0.93;;
36689;SDS011;22676;51.120;3.702;2023-08-20T02:49:13;1.98;;;1.00;;
36689;SDS011;22676;51.120;3.702;2023-08-20T02:51:39;1.20;;;1.00;;
36689;SDS011;22676;51.120;3.702;2023-08-20T02:54:07;1.55;;;0.90;;
36689;SDS011;22676;51.120;3.702;2023-08-20T02:56:33;4.05;;;1.02;;
36689;SDS011;22676;51.120;3.702;2023-08-20T02:58:58;1.45;;;0.90;;
36689;SDS011;22676;51.120;3.702;2023-08-20T03:01:25;2.28;;;1.15;;
36689;SDS011;22676;51.120;3.702;2023-08-20T03:03:52;2.28;;;1.00;;
36689;SDS011;22676;51.120;3.702;2023-08-20T03:06:18;2.03;;;0.90;;
36689;SDS011;22676;51.120;3.702;2023-08-20T03:08:43;1.48;;;1.00;;
36689;SDS011;22676;51.120;3.702;2023-08-20T03:11:10;1.20;;;0.90;;
36689;SDS011;22676;51.120;3.702;2023-08-20T03:13:36;2.05;;;0.90;;
36689;SDS011;22676;51.120;3.702;2023-08-20T03:16:01;1.50;;;1.08;;
36689;SDS011;22676;51.120;3.702;2023-08-20T03:18:28;2.03;;;1.08;;
36689;SDS011;22676;51.120;3.702;2023-08-20T03:20:54;1.20;;;0.90;;
36689;SDS011;22676;51.120;3.702;2023-08-20T03:23:21;1.10;;;1.00;;
36689;SDS011;22676;51.120;3.702;2023-08-20T03:25:47;1.05;;;0.90;;
36689;SDS011;22676;51.120;3.702;2023-08-20T03:28:12;1.52;;;1.05;;
36689;SDS011;22676;51.120;3.702;2023-08-20T03:30:38;1.33;;;0.90;;
36689;SDS011;22676;51.120;3.702;2023-08-20T03:33:04;1.05;;;0.95;;
36689;SDS011;22676;51.120;3.702;2023-08-20T03:35:29;1.10;;;1.00;;
36689;SDS011;22676;51.120;3.702;2023-08-20T03:37:55;1.05;;;0.70;;
36689;SDS011;22676;51.120;3.702;2023-08-20T03:40:21;1.92;;;0.90;;
36689;SDS011;22676;51.120;3.702;2023-08-20T03:42:46;1.80;;;0.90;;
36689;SDS011;22676;51.120;3.702;2023-08-20T03:45:12;2.63;;;1.10;;
36689;SDS011;22676;51.120;3.702;2023-08-20T03:47:38;3.10;;;1.10;;
36689;SDS011;22676;51.120;3.702;2023-08-20T03:50:04;0.80;;;0.80;;
36689;SDS011;22676;51.120;3.702;2023-08-20T03:52:30;1.55;;;0.90;;
36689;SDS011;22676;51.120;3.702;2023-08-20T03:54:56;1.25;;;0.90;;
36689;SDS011;22676;51.120;3.702;2023-08-20T03:57:22;1.75;;;1.10;;
36689;SDS011;22676;51.120;3.702;2023-08-20T03:59:47;1.17;;;0.90;;
36689;SDS011;22676;51.120;3.702;2023-08-20T04:02:13;1.40;;;0.90;;
36689;SDS011;22676;51.120;3.702;2023-08-20T04:04:39;1.52;;;0.98;;
36689;SDS011;22676;51.120;3.702;2023-08-20T04:07:05;1.88;;;0.90;;
36689;SDS011;22676;51.120;3.702;2023-08-20T04:09:32;1.92;;;0.80;;
36689;SDS011;22676;51.120;3.702;2023-08-20T04:11:58;3.10;;;1.13;;
36689;SDS011;22676;51.120;3.702;2023-08-20T04:14:24;7.07;;;1.20;;
36689;SDS011;22676;51.120;3.702;2023-08-20T04:16:50;2.83;;;0.85;;
36689;SDS011;22676;51.120;3.702;2023-08-20T04:19:16;2.33;;;1.17;;
36689;SDS011;22676;51.120;3.702;2023-08-20T04:21:41;2.05;;;1.00;;
36689;SDS011;22676;51.120;3.702;2023-08-20T04:24:07;1.95;;;0.80;;
36689;SDS011;22676;51.120;3.702;2023-08-20T04:26:32;2.15;;;0.82;;
36689;SDS011;22676;51.120;3.702;2023-08-20T04:28:58;4.15;;;1.13;;
36689;SDS011;22676;51.120;3.702;2023-08-20T04:31:24;2.08;;;0.90;;
36689;SDS011;22676;51.120;3.702;2023-08-20T04:33:50;1.77;;;0.90;;
36689;SDS011;22676;51.120;3.702;2023-08-20T04:36:16;1.83;;;1.02;;
36689;SDS011;22676;51.120;3.702;2023-08-20T04:38:41;1.55;;;0.90;;
36689;SDS011;22676;51.120;3.702;2023-08-20T04:41:07;1.20;;;0.90;;
36689;SDS011;22676;51.120;3.702;2023-08-20T04:43:32;1.88;;;0.80;;
36689;SDS011;22676;51.120;3.702;2023-08-20T04:45:58;1.25;;;0.88;;
36689;SDS011;22676;51.120;3.702;2023-08-20T04:48:24;1.38;;;0.80;;
36689;SDS011;22676;51.120;3.702;2023-08-20T04:50:49;1.02;;;0.88;;
36689;SDS011;22676;51.120;3.702;2023-08-20T04:53:15;0.80;;;0.80;;
36689;SDS011;22676;51.120;3.702;2023-08-20T04:55:41;1.35;;;0.80;;
36689;SDS011;22676;51.120;3.702;2023-08-20T04:58:06;1.45;;;1.20;;
36689;SDS011;22676;51.120;3.702;2023-08-20T05:00:32;1.10;;;0.90;;
36689;SDS011;22676;51.120;3.702;2023-08-20T05:02:57;2.30;;;0.90;;
36689;SDS011;22676;51.120;3.702;2023-08-20T05:05:23;0.77;;;0.70;;
36689;SDS011;22676;51.120;3.702;2023-08-20T05:07:49;1.40;;;0.90;;
36689;SDS011;22676;51.120;3.702;2023-08-20T05:10:15;2.10;;;1.02;;
36689;SDS011;22676;51.120;3.702;2023-08-20T05:12:41;1.65;;;0.80;;
36689;SDS011;22676;51.120;3.702;2023-08-20T05:15:06;2.13;;;0.80;;
36689;SDS011;22676;51.120;3.702;2023-08-20T05:17:32;2.20;;;0.80;;
36689;SDS011;22676;51.120;3.702;2023-08-20T05:19:58;1.65;;;1.38;;
36689;SDS011;22676;51.120;3.702;2023-08-20T05:22:24;2.15;;;0.88;;
36689;SDS011;22676;51.120;3.702;2023-08-20T05:24:49;3.05;;;0.85;;
36689;SDS011;22676;51.120;3.702;2023-08-20T05:27:15;1.20;;;0.80;;
36689;SDS011;22676;51.120;3.702;2023-08-20T05:29:44;0.80;;;0.70;;
36689;SDS011;22676;51.120;3.702;2023-08-20T05:32:10;1.23;;;0.88;;
36689;SDS011;22676;51.120;3.702;2023-08-20T05:34:36;1.35;;;0.80;;
36689;SDS011;22676;51.120;3.702;2023-08-20T05:37:02;1.10;;;0.82;;
36689;SDS011;22676;51.120;3.702;2023-08-20T05:39:29;0.70;;;0.70;;
36689;SDS011;22676;51.120;3.702;2023-08-20T05:41:56;1.48;;;0.90;;
36689;SDS011;22676;51.120;3.702;2023-08-20T05:44:21;0.80;;;0.73;;
36689;SDS011;22676;51.120;3.702;2023-08-20T05:46:47;1.05;;;0.90;;
36689;SDS011;22676;51.120;3.702;2023-08-20T05:49:14;1.00;;;0.80;;
36689;SDS011;22676;51.120;3.702;2023-08-20T05:51:41;0.98;;;0.80;;
36689;SDS011;22676;51.120;3.702;2023-08-20T05:54:10;1.65;;;0.85;;
36689;SDS011;22676;51.120;3.702;2023-08-20T05:56:36;1.08;;;0.82;;
36689;SDS011;22676;51.120;3.702;2023-08-20T05:59:02;1.13;;;0.90;;
36689;SDS011;22676;51.120;3.702;2023-08-20T06:01:28;1.40;;;0.90;;
36689;SDS011;22676;51.120;3.702;2023-08-20T06:03:54;0.90;;;0.80;;
36689;SDS011;22676;51.120;3.702;2023-08-20T06:06:19;1.45;;;0.80;;
36689;SDS011;22676;51.120;3.702;2023-08-20T06:08:46;1.17;;;0.80;;
36689;SDS011;22676;51.120;3.702;2023-08-20T06:11:11;0.85;;;0.73;;
36689;SDS011;22676;51.120;3.702;2023-08-20T06:13:37;0.88;;;0.88;;
36689;SDS011;22676;51.120;3.702;2023-08-20T06:16:03;1.35;;;1.13;;
36689;SDS011;22676;51.120;3.702;2023-08-20T06:18:28;1.27;;;0.82;;
36689;SDS011;22676;51.120;3.702;2023-08-20T06:20:54;1.15;;;0.70;;
36689;SDS011;22676;51.120;3.702;2023-08-20T06:23:20;1.13;;;0.90;;
36689;SDS011;22676;51.120;3.702;2023-08-20T06:25:45;0.85;;;0.60;;
36689;SDS011;22676;51.120;3.702;2023-08-20T06:28:11;1.50;;;0.85;;
36689;SDS011;22676;51.120;3.702;2023-08-20T06:30:37;0.82;;;0.82;;
36689;SDS011;22676;51.120;3.702;2023-08-20T06:33:02;1.02;;;0.90;;
36689;SDS011;22676;51.120;3.702;2023-08-20T06:35:28;0.70;;;0.70;;
36689;SDS011;22676;51.120;3.702;2023-08-20T06:37:54;0.73;;;0.63;;
36689;SDS011;22676;51.120;3.702;2023-08-20T06:40:20;1.05;;;0.85;;
36689;SDS011;22676;51.120;3.702;2023-08-20T06:42:45;0.80;;;0.80;;
36689;SDS011;22676;51.120;3.702;2023-08-20T06:45:11;0.82;;;0.70;;
36689;SDS011;22676;51.120;3.702;2023-08-20T06:47:37;0.93;;;0.73;;
36689;SDS011;22676;51.120;3.702;2023-08-20T06:50:02;1.05;;;0.77;;
36689;SDS011;22676;51.120;3.702;2023-08-20T06:52:29;1.17;;;0.88;;
36689;SDS011;22676;51.120;3.702;2023-08-20T06:54:55;1.35;;;0.90;;
36689;SDS011;22676;51.120;3.702;2023-08-20T06:57:20;2.58;;;1.15;;
36689;SDS011;22676;51.120;3.702;2023-08-20T06:59:46;2.08;;;0.98;;
36689;SDS011;22676;51.120;3.702;2023-08-20T07:02:12;1.15;;;0.80;;
36689;SDS011;22676;51.120;3.702;2023-08-20T07:04:37;1.27;;;0.73;;
36689;SDS011;22676;51.120;3.702;2023-08-20T07:07:03;1.02;;;0.85;;
36689;SDS011;22676;51.120;3.702;2023-08-20T07:09:33;1.08;;;0.70;;
36689;SDS011;22676;51.120;3.702;2023-08-20T07:11:58;0.80;;;0.80;;
36689;SDS011;22676;51.120;3.702;2023-08-20T07:14:24;1.00;;;0.75;;
36689;SDS011;22676;51.120;3.702;2023-08-20T07:16:50;3.15;;;0.60;;
36689;SDS011;22676;51.120;3.702;2023-08-20T07:19:15;1.00;;;0.88;;
36689;SDS011;22676;51.120;3.702;2023-08-20T07:21:41;0.80;;;0.73;;
36689;SDS011;22676;51.120;3.702;2023-08-20T07:24:07;0.82;;;0.80;;
36689;SDS011;22676;51.120;3.702;2023-08-20T07:26:32;0.70;;;0.70;;
36689;SDS011;22676;51.120;3.702;2023-08-20T07:28:58;0.90;;;0.82;;
36689;SDS011;22676;51.120;3.702;2023-08-20T07:31:31;2.20;;;0.90;;
36689;SDS011;22676;51.120;3.702;2023-08-20T07:33:58;1.05;;;0.70;;
36689;SDS011;22676;51.120;3.702;2023-08-20T07:36:25;1.23;;;0.70;;
36689;SDS011;22676;51.120;3.702;2023-08-20T07:38:52;0.77;;;0.70;;
36689;SDS011;22676;51.120;3.702;2023-08-20T07:41:18;0.90;;;0.70;;
36689;SDS011;22676;51.120;3.702;2023-08-20T07:43:45;1.05;;;0.80;;
36689;SDS011;22676;51.120;3.702;2023-08-20T07:46:11;1.55;;;0.70;;
36689;SDS011;22676;51.120;3.702;2023-08-20T07:48:37;0.75;;;0.75;;
36689;SDS011;22676;51.120;3.702;2023-08-20T07:51:03;0.93;;;0.75;;
36689;SDS011;22676;51.120;3.702;2023-08-20T07:53:29;1.45;;;0.77;;
36689;SDS011;22676;51.120;3.702;2023-08-20T07:55:56;1.20;;;0.73;;
36689;SDS011;22676;51.120;3.702;2023-08-20T07:58:21;1.13;;;0.80;;
36689;SDS011;22676;51.120;3.702;2023-08-20T08:00:47;1.45;;;0.80;;
36689;SDS011;22676;51.120;3.702;2023-08-20T08:03:13;1.40;;;0.90;;
36689;SDS011;22676;51.120;3.702;2023-08-20T08:05:45;1.05;;;0.93;;
36689;SDS011;22676;51.120;3.702;2023-08-20T08:08:17;1.35;;;0.60;;
36689;SDS011;22676;51.120;3.702;2023-08-20T08:10:46;1.98;;;0.60;;
36689;SDS011;22676;51.120;3.702;2023-08-20T08:13:13;0.85;;;0.60;;
36689;SDS011;22676;51.120;3.702;2023-08-20T08:15:44;0.73;;;0.55;;
36689;SDS011;22676;51.120;3.702;2023-08-20T08:18:10;2.35;;;0.80;;
36689;SDS011;22676;51.120;3.702;2023-08-20T08:20:35;0.82;;;0.80;;
36689;SDS011;22676;51.120;3.702;2023-08-20T08:23:01;1.60;;;0.77;;
36689;SDS011;22676;51.120;3.702;2023-08-20T08:25:27;1.23;;;0.80;;
36689;SDS011;22676;51.120;3.702;2023-08-20T08:27:53;0.90;;;0.70;;
36689;SDS011;22676;51.120;3.702;2023-08-20T08:30:18;0.60;;;0.60;;
36689;SDS011;22676;51.120;3.702;2023-08-20T08:32:44;0.55;;;0.55;;
36689;SDS011;22676;51.120;3.702;2023-08-20T08:35:10;0.60;;;0.60;;
36689;SDS011;22676;51.120;3.702;2023-08-20T08:37:35;0.60;;;0.60;;
36689;SDS011;22676;51.120;3.702;2023-08-20T08:40:02;1.27;;;0.70;;
36689;SDS011;22676;51.120;3.702;2023-08-20T08:42:32;0.70;;;0.60;;
36689;SDS011;22676;51.120;3.702;2023-08-20T08:45:02;0.60;;;0.60;;
36689;SDS011;22676;51.120;3.702;2023-08-20T08:47:28;0.70;;;0.60;;
36689;SDS011;22676;51.120;3.702;2023-08-20T08:49:55;0.77;;;0.60;;
36689;SDS011;22676;51.120;3.702;2023-08-20T08:52:25;1.45;;;0.80;;
36689;SDS011;22676;51.120;3.702;2023-08-20T08:54:51;0.73;;;0.73;;
36689;SDS011;22676;51.120;3.702;2023-08-20T08:57:17;0.65;;;0.65;;
36689;SDS011;22676;51.120;3.702;2023-08-20T08:59:43;1.08;;;0.70;;
36689;SDS011;22676;51.120;3.702;2023-08-20T09:02:10;1.02;;;0.85;;
36689;SDS011;22676;51.120;3.702;2023-08-20T09:04:42;0.63;;;0.60;;
36689;SDS011;22676;51.120;3.702;2023-08-20T09:07:11;1.60;;;0.90;;
36689;SDS011;22676;51.120;3.702;2023-08-20T09:09:41;1.20;;;0.80;;
36689;SDS011;22676;51.120;3.702;2023-08-20T09:12:15;1.05;;;0.65;;
36689;SDS011;22676;51.120;3.702;2023-08-20T09:14:48;0.82;;;0.50;;
36689;SDS011;22676;51.120;3.702;2023-08-20T09:17:15;0.52;;;0.52;;
36689;SDS011;22676;51.120;3.702;2023-08-20T09:19:42;1.17;;;0.70;;
36689;SDS011;22676;51.120;3.702;2023-08-20T09:22:14;1.15;;;0.77;;
36689;SDS011;22676;51.120;3.702;2023-08-20T09:24:41;1.30;;;0.60;;
36689;SDS011;22676;51.120;3.702;2023-08-20T09:27:09;0.95;;;0.63;;
36689;SDS011;22676;51.120;3.702;2023-08-20T09:29:53;0.70;;;0.60;;
36689;SDS011;22676;51.120;3.702;2023-08-20T09:32:20;0.80;;;0.65;;
36689;SDS011;22676;51.120;3.702;2023-08-20T09:34:48;0.68;;;0.65;;
36689;SDS011;22676;51.120;3.702;2023-08-20T09:37:16;0.75;;;0.73;;
36689;SDS011;22676;51.120;3.702;2023-08-20T09:39:43;1.30;;;0.73;;
36689;SDS011;22676;51.120;3.702;2023-08-20T09:42:09;0.98;;;0.70;;
36689;SDS011;22676;51.120;3.702;2023-08-20T09:44:36;1.27;;;0.70;;
36689;SDS011;22676;51.120;3.702;2023-08-20T09:47:14;0.65;;;0.55;;
36689;SDS011;22676;51.120;3.702;2023-08-20T09:49:45;0.98;;;0.70;;
36689;SDS011;22676;51.120;3.702;2023-08-20T09:52:15;1.00;;;0.68;;
36689;SDS011;22676;51.120;3.702;2023-08-20T09:57:38;0.57;;;0.50;;
36689;SDS011;22676;51.120;3.702;2023-08-20T10:00:05;0.90;;;0.60;;
36689;SDS011;22676;51.120;3.702;2023-08-20T10:02:35;1.40;;;0.60;;
36689;SDS011;22676;51.120;3.702;2023-08-20T10:05:02;1.48;;;0.80;;
36689;SDS011;22676;51.120;3.702;2023-08-20T10:07:31;1.65;;;0.70;;
36689;SDS011;22676;51.120;3.702;2023-08-20T10:09:58;1.23;;;0.70;;
36689;SDS011;22676;51.120;3.702;2023-08-20T10:12:29;1.52;;;0.70;;
36689;SDS011;22676;51.120;3.702;2023-08-20T10:14:59;0.60;;;0.60;;
36689;SDS011;22676;51.120;3.702;2023-08-20T10:17:25;1.65;;;0.70;;
36689;SDS011;22676;51.120;3.702;2023-08-20T10:19:55;0.73;;;0.70;;
36689;SDS011;22676;51.120;3.702;2023-08-20T10:22:31;0.55;;;0.50;;
36689;SDS011;22676;51.120;3.702;2023-08-20T10:24:58;0.60;;;0.60;;
36689;SDS011;22676;51.120;3.702;2023-08-20T10:27:30;1.85;;;0.50;;
36689;SDS011;22676;51.120;3.702;2023-08-20T10:29:58;1.23;;;0.70;;
36689;SDS011;22676;51.120;3.702;2023-08-20T10:32:44;1.17;;;0.55;;
36689;SDS011;22676;51.120;3.702;2023-08-20T10:35:10;0.93;;;0.60;;
36689;SDS011;22676;51.120;3.702;2023-08-20T10:37:37;0.50;;;0.50;;
36689;SDS011;22676;51.120;3.702;2023-08-20T10:40:05;0.80;;;0.52;;
36689;SDS011;22676;51.120;3.702;2023-08-20T10:42:32;0.95;;;0.70;;
36689;SDS011;22676;51.120;3.702;2023-08-20T10:45:08;1.98;;;0.70;;
36689;SDS011;22676;51.120;3.702;2023-08-20T10:47:46;0.55;;;0.50;;
36689;SDS011;22676;51.120;3.702;2023-08-20T10:50:17;0.57;;;0.50;;
36689;SDS011;22676;51.120;3.702;2023-08-20T10:52:47;1.00;;;0.70;;
36689;SDS011;22676;51.120;3.702;2023-08-20T10:55:15;0.75;;;0.45;;
36689;SDS011;22676;51.120;3.702;2023-08-20T10:57:46;0.55;;;0.50;;
36689;SDS011;22676;51.120;3.702;2023-08-20T11:00:20;0.57;;;0.50;;
36689;SDS011;22676;51.120;3.702;2023-08-20T11:02:46;1.23;;;0.93;;
36689;SDS011;22676;51.120;3.702;2023-08-20T11:05:19;0.40;;;0.40;;
36689;SDS011;22676;51.120;3.702;2023-08-20T11:07:46;0.50;;;0.50;;
36689;SDS011;22676;51.120;3.702;2023-08-20T11:10:16;0.70;;;0.60;;
36689;SDS011;22676;51.120;3.702;2023-08-20T11:12:46;0.85;;;0.60;;
36689;SDS011;22676;51.120;3.702;2023-08-20T11:15:12;0.50;;;0.40;;
36689;SDS011;22676;51.120;3.702;2023-08-20T11:17:41;1.45;;;0.68;;
36689;SDS011;22676;51.120;3.702;2023-08-20T11:20:08;0.68;;;0.60;;
36689;SDS011;22676;51.120;3.702;2023-08-20T11:22:36;1.30;;;0.50;;
36689;SDS011;22676;51.120;3.702;2023-08-20T11:25:02;0.98;;;0.60;;
36689;SDS011;22676;51.120;3.702;2023-08-20T11:27:29;0.70;;;0.55;;
36689;SDS011;22676;51.120;3.702;2023-08-20T11:29:55;0.75;;;0.60;;
36689;SDS011;22676;51.120;3.702;2023-08-20T11:32:25;0.80;;;0.60;;
36689;SDS011;22676;51.120;3.702;2023-08-20T11:34:51;2.00;;;0.60;;
36689;SDS011;22676;51.120;3.702;2023-08-20T11:37:18;1.27;;;0.82;;
36689;SDS011;22676;51.120;3.702;2023-08-20T11:39:48;0.95;;;0.57;;
36689;SDS011;22676;51.120;3.702;2023-08-20T11:42:14;0.93;;;0.50;;
36689;SDS011;22676;51.120;3.702;2023-08-20T11:44:45;0.90;;;0.68;;
36689;SDS011;22676;51.120;3.702;2023-08-20T11:47:15;0.70;;;0.52;;
36689;SDS011;22676;51.120;3.702;2023-08-20T11:49:41;1.25;;;0.60;;
36689;SDS011;22676;51.120;3.702;2023-08-20T11:52:07;0.70;;;0.52;;
36689;SDS011;22676;51.120;3.702;2023-08-20T11:54:34;0.60;;;0.52;;
36689;SDS011;22676;51.120;3.702;2023-08-20T11:57:03;1.73;;;0.60;;
36689;SDS011;22676;51.120;3.702;2023-08-20T11:59:30;0.85;;;0.60;;
36689;SDS011;22676;51.120;3.702;2023-08-20T12:01:59;0.70;;;0.60;;
36689;SDS011;22676;51.120;3.702;2023-08-20T12:04:29;0.68;;;0.68;;
36689;SDS011;22676;51.120;3.702;2023-08-20T12:07:07;1.58;;;0.77;;
36689;SDS011;22676;51.120;3.702;2023-08-20T12:09:34;1.35;;;0.75;;
36689;SDS011;22676;51.120;3.702;2023-08-20T12:12:01;1.10;;;0.60;;
36689;SDS011;22676;51.120;3.702;2023-08-20T12:14:27;2.20;;;0.60;;
36689;SDS011;22676;51.120;3.702;2023-08-20T12:16:54;0.60;;;0.60;;
36689;SDS011;22676;51.120;3.702;2023-08-20T12:19:20;0.80;;;0.80;;
36689;SDS011;22676;51.120;3.702;2023-08-20T12:21:45;0.80;;;0.70;;
36689;SDS011;22676;51.120;3.702;2023-08-20T12:24:11;0.60;;;0.60;;
36689;SDS011;22676;51.120;3.702;2023-08-20T12:26:38;0.88;;;0.80;;
36689;SDS011;22676;51.120;3.702;2023-08-20T12:29:04;0.65;;;0.65;;
36689;SDS011;22676;51.120;3.702;2023-08-20T12:31:33;1.38;;;0.82;;
36689;SDS011;22676;51.120;3.702;2023-08-20T12:34:00;1.00;;;0.70;;
36689;SDS011;22676;51.120;3.702;2023-08-20T12:36:26;1.10;;;0.80;;
36689;SDS011;22676;51.120;3.702;2023-08-20T12:38:52;0.85;;;0.77;;
36689;SDS011;22676;51.120;3.702;2023-08-20T12:41:18;1.20;;;0.68;;
36689;SDS011;22676;51.120;3.702;2023-08-20T12:43:44;0.65;;;0.63;;
36689;SDS011;22676;51.120;3.702;2023-08-20T12:46:10;0.73;;;0.70;;
36689;SDS011;22676;51.120;3.702;2023-08-20T12:48:37;0.70;;;0.70;;
36689;SDS011;22676;51.120;3.702;2023-08-20T12:51:03;1.15;;;0.80;;
36689;SDS011;22676;51.120;3.702;2023-08-20T12:53:29;0.80;;;0.80;;
36689;SDS011;22676;51.120;3.702;2023-08-20T12:55:55;0.70;;;0.70;;
36689;SDS011;22676;51.120;3.702;2023-08-20T12:58:22;0.68;;;0.68;;
36689;SDS011;22676;51.120;3.702;2023-08-20T13:00:48;0.77;;;0.77;;
36689;SDS011;22676;51.120;3.702;2023-08-20T13:03:14;2.00;;;0.90;;
36689;SDS011;22676;51.120;3.702;2023-08-20T13:05:39;1.35;;;0.90;;
36689;SDS011;22676;51.120;3.702;2023-08-20T13:08:06;1.40;;;0.90;;
36689;SDS011;22676;51.120;3.702;2023-08-20T13:10:32;1.17;;;0.80;;
36689;SDS011;22676;51.120;3.702;2023-08-20T13:13:01;0.93;;;0.68;;
36689;SDS011;22676;51.120;3.702;2023-08-20T13:15:28;0.60;;;0.60;;
36689;SDS011;22676;51.120;3.702;2023-08-20T13:17:55;1.25;;;0.70;;
36689;SDS011;22676;51.120;3.702;2023-08-20T13:20:20;1.63;;;0.70;;
36689;SDS011;22676;51.120;3.702;2023-08-20T13:22:48;1.23;;;0.80;;
36689;SDS011;22676;51.120;3.702;2023-08-20T13:25:15;1.10;;;0.90;;
36689;SDS011;22676;51.120;3.702;2023-08-20T13:27:41;0.80;;;0.80;;
36689;SDS011;22676;51.120;3.702;2023-08-20T13:30:07;0.88;;;0.63;;
36689;SDS011;22676;51.120;3.702;2023-08-20T13:32:34;0.77;;;0.63;;
36689;SDS011;22676;51.120;3.702;2023-08-20T13:35:03;1.00;;;0.90;;
36689;SDS011;22676;51.120;3.702;2023-08-20T13:37:29;1.00;;;0.90;;
36689;SDS011;22676;51.120;3.702;2023-08-20T13:39:58;0.82;;;0.77;;
36689;SDS011;22676;51.120;3.702;2023-08-20T13:42:25;0.73;;;0.73;;
36689;SDS011;22676;51.120;3.702;2023-08-20T13:44:51;0.60;;;0.60;;
36689;SDS011;22676;51.120;3.702;2023-08-20T13:47:17;0.63;;;0.60;;
36689;SDS011;22676;51.120;3.702;2023-08-20T13:49:42;0.52;;;0.50;;
36689;SDS011;22676;51.120;3.702;2023-08-20T13:52:09;1.10;;;0.73;;
36689;SDS011;22676;51.120;3.702;2023-08-20T13:54:35;0.95;;;0.60;;
36689;SDS011;22676;51.120;3.702;2023-08-20T13:57:02;1.25;;;0.80;;
36689;SDS011;22676;51.120;3.702;2023-08-20T13:59:31;1.25;;;0.80;;
36689;SDS011;22676;51.120;3.702;2023-08-20T14:01:57;0.70;;;0.70;;
36689;SDS011;22676;51.120;3.702;2023-08-20T14:04:23;1.05;;;0.80;;
36689;SDS011;22676;51.120;3.702;2023-08-20T14:06:49;1.40;;;0.80;;
36689;SDS011;22676;51.120;3.702;2023-08-20T14:09:15;3.15;;;1.00;;
36689;SDS011;22676;51.120;3.702;2023-08-20T14:11:43;1.20;;;0.70;;
36689;SDS011;22676;51.120;3.702;2023-08-20T14:14:08;1.67;;;0.70;;
36689;SDS011;22676;51.120;3.702;2023-08-20T14:16:34;2.65;;;0.80;;
36689;SDS011;22676;51.120;3.702;2023-08-20T14:19:00;1.38;;;0.90;;
36689;SDS011;22676;51.120;3.702;2023-08-20T14:21:26;0.98;;;0.70;;
36689;SDS011;22676;51.120;3.702;2023-08-20T14:23:51;0.75;;;0.70;;
36689;SDS011;22676;51.120;3.702;2023-08-20T14:26:17;0.90;;;0.70;;
36689;SDS011;22676;51.120;3.702;2023-08-20T14:28:43;1.35;;;0.85;;
36689;SDS011;22676;51.120;3.702;2023-08-20T14:31:09;1.35;;;0.80;;
36689;SDS011;22676;51.120;3.702;2023-08-20T14:33:35;1.33;;;0.73;;
36689;SDS011;22676;51.120;3.702;2023-08-20T14:36:01;1.30;;;0.90;;
36689;SDS011;22676;51.120;3.702;2023-08-20T14:38:30;1.15;;;0.90;;
36689;SDS011;22676;51.120;3.702;2023-08-20T14:40:59;1.20;;;0.60;;
36689;SDS011;22676;51.120;3.702;2023-08-20T14:43:26;1.00;;;0.68;;
36689;SDS011;22676;51.120;3.702;2023-08-20T14:45:52;1.38;;;0.77;;
36689;SDS011;22676;51.120;3.702;2023-08-20T14:48:19;1.15;;;0.80;;
36689;SDS011;22676;51.120;3.702;2023-08-20T14:50:45;0.80;;;0.70;;
36689;SDS011;22676;51.120;3.702;2023-08-20T14:53:10;1.30;;;0.82;;
36689;SDS011;22676;51.120;3.702;2023-08-20T14:55:36;0.95;;;0.77;;